createdAt,value
2019-06-08T00:00:24.659Z,14.20
2019-06-08T00:02:53.437Z,14.20
2019-06-08T00:05:23.003Z,14.10
2019-06-08T00:07:51.708Z,14.10
2019-06-08T00:10:23.736Z,14.10
2019-06-08T00:12:51.065Z,14.10
2019-06-08T00:15:20.277Z,14.10
2019-06-08T00:17:49.074Z,14.10
2019-06-08T00:20:19.635Z,14.00
2019-06-08T00:22:48.189Z,14.10
2019-06-08T00:25:18.214Z,14.10
2019-06-08T00:27:47.181Z,14.00
2019-06-08T00:30:17.334Z,14.00
2019-06-08T00:32:45.776Z,14.00
2019-06-08T00:35:14.793Z,14.00
2019-06-08T00:37:43.580Z,14.00
2019-06-08T00:40:12.473Z,14.00
2019-06-08T00:42:40.929Z,13.90
2019-06-08T00:45:09.994Z,13.90
2019-06-08T00:47:47.637Z,13.90
2019-06-08T00:50:10.403Z,13.90
2019-06-08T00:52:38.843Z,13.90
2019-06-08T00:55:07.719Z,13.90
2019-06-08T00:57:36.155Z,13.90
2019-06-08T01:00:10.863Z,13.90
2019-06-08T01:02:37.232Z,14.00
2019-06-08T01:05:07.302Z,14.00
2019-06-08T01:07:36.060Z,14.00
2019-06-08T01:10:06.790Z,14.00
2019-06-08T01:12:35.476Z,14.00
2019-06-08T01:15:06.160Z,14.00
2019-06-08T01:17:34.707Z,14.00
2019-06-08T01:20:05.076Z,14.00
2019-06-08T01:22:33.889Z,13.90
2019-06-08T01:25:02.375Z,13.90
2019-06-08T01:27:30.808Z,13.90
2019-06-08T01:29:59.271Z,13.90
2019-06-08T01:32:28.566Z,13.90
2019-06-08T01:34:57.471Z,13.90
2019-06-08T01:37:26.944Z,13.90
2019-06-08T01:39:55.537Z,13.90
2019-06-08T01:42:23.957Z,13.90
2019-06-08T01:44:52.749Z,13.80
2019-06-08T01:47:22.097Z,13.80
2019-06-08T01:49:50.802Z,13.80
2019-06-08T01:52:19.307Z,13.80
2019-06-08T01:54:47.747Z,13.80
2019-06-08T01:57:16.176Z,13.80
2019-06-08T01:59:44.613Z,13.70
2019-06-08T02:02:13.379Z,13.80
2019-06-08T02:04:42.156Z,13.70
2019-06-08T02:07:10.947Z,13.70
2019-06-08T02:09:39.392Z,13.80
2019-06-08T02:12:07.826Z,13.70
2019-06-08T02:14:36.284Z,13.80
2019-06-08T02:17:05.695Z,13.80
2019-06-08T02:19:34.824Z,13.80
2019-06-08T02:22:03.451Z,13.70
2019-06-08T02:24:33.254Z,13.70
2019-06-08T02:27:02.210Z,13.70
2019-06-08T02:29:31.926Z,13.60
2019-06-08T02:32:00.714Z,13.60
2019-06-08T02:34:30.750Z,13.60
2019-06-08T02:36:59.338Z,13.60
2019-06-08T02:39:28.531Z,13.60
2019-06-08T02:41:57.200Z,13.60
2019-06-08T02:44:25.620Z,13.60
2019-06-08T02:46:54.077Z,13.50
2019-06-08T02:49:22.777Z,13.60
2019-06-08T02:51:51.221Z,13.60
2019-06-08T02:54:20.072Z,13.50
2019-06-08T02:56:51.262Z,13.50
2019-06-08T02:59:22.564Z,13.60
2019-06-08T03:01:52.982Z,13.50
2019-06-08T03:04:24.241Z,13.50
2019-06-08T03:06:53.320Z,13.40
2019-06-08T03:09:21.909Z,13.50
2019-06-08T03:11:52.085Z,13.50
2019-06-08T03:14:22.042Z,13.50
2019-06-08T03:16:50.481Z,13.50
2019-06-08T03:19:22.089Z,13.40
2019-06-08T03:21:49.064Z,13.40
2019-06-08T03:24:17.492Z,13.40
2019-06-08T03:26:47.008Z,13.40
2019-06-08T03:29:15.449Z,13.40
2019-06-08T03:31:54.639Z,13.40
2019-06-08T03:34:14.369Z,13.40
2019-06-08T03:36:53.783Z,13.40
2019-06-08T03:39:13.867Z,13.40
2019-06-08T03:41:43.154Z,13.50
2019-06-08T03:44:12.780Z,13.50
2019-06-08T03:46:43.417Z,13.50
2019-06-08T03:49:11.395Z,13.60
2019-06-08T03:51:59.227Z,13.60
2019-06-08T03:54:27.649Z,13.60
2019-06-08T03:57:03.144Z,13.70
2019-06-08T03:59:31.943Z,13.70
2019-06-08T04:02:00.736Z,13.70
2019-06-08T04:04:29.169Z,13.70
2019-06-08T04:06:57.591Z,13.70
2019-06-08T04:09:26.290Z,13.80
2019-06-08T04:11:54.723Z,13.90
2019-06-08T04:14:23.152Z,13.90
2019-06-08T04:17:11.297Z,13.90
2019-06-08T04:19:39.953Z,13.90
2019-06-08T04:22:08.537Z,13.90
2019-06-08T04:24:38.063Z,13.90
2019-06-08T04:27:06.874Z,13.90
2019-06-08T04:29:35.306Z,13.90
2019-06-08T04:32:04.057Z,14.00
2019-06-08T04:34:32.482Z,14.00
2019-06-08T04:37:00.918Z,14.10
2019-06-08T04:39:29.708Z,14.20
2019-06-08T04:41:58.131Z,14.30
2019-06-08T04:44:26.809Z,14.30
2019-06-08T04:46:55.271Z,14.40
2019-06-08T04:49:23.767Z,14.60
2019-06-08T04:51:52.249Z,14.60
2019-06-08T04:54:20.708Z,14.60
2019-06-08T04:56:49.738Z,14.60
2019-06-08T04:59:18.330Z,14.80
2019-06-08T05:01:47.212Z,14.80
2019-06-08T05:04:16.104Z,14.80
2019-06-08T05:06:45.240Z,14.90
2019-06-08T05:09:14.100Z,14.90
2019-06-08T05:11:43.216Z,14.80
2019-06-08T05:14:12.092Z,14.70
2019-06-08T05:16:41.280Z,14.60
2019-06-08T05:19:10.285Z,14.50
2019-06-08T05:21:39.522Z,14.50
2019-06-08T05:24:08.131Z,14.50
2019-06-08T05:26:36.576Z,14.50
2019-06-08T05:29:05.104Z,14.50
2019-06-08T05:31:33.832Z,14.50
2019-06-08T05:34:02.264Z,14.50
2019-06-08T05:36:31.013Z,14.50
2019-06-08T05:38:59.435Z,14.50
2019-06-08T05:41:27.891Z,14.60
2019-06-08T05:43:56.315Z,14.60
2019-06-08T05:46:24.751Z,14.60
2019-06-08T05:48:53.226Z,14.60
2019-06-08T05:51:22.665Z,14.70
2019-06-08T05:53:51.427Z,14.80
2019-06-08T05:56:20.380Z,14.80
2019-06-08T05:58:50.347Z,14.90
2019-06-08T06:01:19.346Z,14.90
2019-06-08T06:03:48.694Z,14.90
2019-06-08T06:06:17.272Z,15.10
2019-06-08T06:08:46.616Z,15.10
2019-06-08T06:11:15.463Z,15.20
2019-06-08T06:13:45.131Z,15.20
2019-06-08T06:16:13.687Z,15.20
2019-06-08T06:18:42.943Z,15.40
2019-06-08T06:21:12.581Z,15.40
2019-06-08T06:23:41.444Z,15.50
2019-06-08T06:26:09.951Z,15.50
2019-06-08T06:28:38.725Z,15.60
2019-06-08T06:31:07.173Z,15.60
2019-06-08T06:33:35.909Z,15.60
2019-06-08T06:36:04.546Z,15.70
2019-06-08T06:38:33.010Z,15.90
2019-06-08T06:41:01.775Z,16.10
2019-06-08T06:43:50.440Z,16.10
2019-06-08T06:46:19.073Z,16.30
2019-06-08T06:48:48.319Z,16.50
2019-06-08T06:51:26.096Z,16.50
2019-06-08T06:53:48.822Z,16.40
2019-06-08T06:56:17.640Z,16.20
2019-06-08T06:58:47.267Z,16.20
2019-06-08T07:01:16.159Z,16.10
2019-06-08T07:03:45.975Z,16.50
2019-06-08T07:06:14.964Z,16.80
2019-06-08T07:08:44.303Z,16.80
2019-06-08T07:11:13.052Z,16.60
2019-06-08T07:13:41.487Z,17.10
2019-06-08T07:16:18.734Z,17.40
2019-06-08T07:18:40.371Z,17.00
2019-06-08T07:21:09.150Z,16.80
2019-06-08T07:23:37.936Z,16.60
2019-06-08T07:26:06.381Z,16.40
2019-06-08T07:28:34.884Z,16.60
2019-06-08T07:31:03.331Z,16.90
2019-06-08T07:33:31.770Z,18.10
2019-06-08T07:36:00.579Z,19.50
2019-06-08T07:38:28.998Z,19.70
2019-06-08T07:41:00.001Z,19.60
2019-06-08T07:43:27.571Z,19.60
2019-06-08T07:45:56.386Z,19.70
2019-06-08T07:48:27.364Z,19.80
2019-06-08T07:50:56.402Z,19.70
2019-06-08T07:53:25.412Z,19.20
2019-06-08T07:55:56.084Z,18.60
2019-06-08T07:58:24.646Z,18.40
2019-06-08T08:00:54.661Z,18.70
2019-06-08T08:03:23.739Z,19.10
2019-06-08T08:05:53.562Z,19.00
2019-06-08T08:08:22.651Z,19.20
2019-06-08T08:10:51.085Z,19.40
2019-06-08T08:13:19.815Z,19.90
2019-06-08T08:15:49.076Z,19.60
2019-06-08T08:18:17.652Z,18.80
2019-06-08T08:20:46.093Z,18.50
2019-06-08T08:23:14.520Z,18.70
2019-06-08T08:25:43.277Z,18.60
2019-06-08T08:28:11.691Z,19.20
2019-06-08T08:30:40.448Z,20.20
2019-06-08T08:33:09.149Z,20.20
2019-06-08T08:35:38.120Z,20.00
2019-06-08T08:38:07.605Z,20.00
2019-06-08T08:40:38.600Z,19.80
2019-06-08T08:43:06.761Z,19.10
2019-06-08T08:45:37.204Z,19.00
2019-06-08T08:48:28.506Z,19.60
2019-06-08T08:50:56.187Z,20.50
2019-06-08T08:53:25.039Z,19.90
2019-06-08T08:55:54.326Z,19.50
2019-06-08T08:58:22.888Z,19.30
2019-06-08T09:00:52.446Z,18.90
2019-06-08T09:03:28.885Z,18.40
2019-06-08T09:05:53.361Z,18.50
2019-06-08T09:08:23.398Z,18.90
2019-06-08T09:10:53.359Z,18.80
2019-06-08T09:13:22.803Z,19.00
2019-06-08T09:15:52.300Z,19.50
2019-06-08T09:18:21.252Z,19.40
2019-06-08T09:20:49.960Z,19.50
2019-06-08T09:23:21.690Z,19.70
2019-06-08T09:25:48.886Z,19.60
2019-06-08T09:28:18.682Z,19.60
2019-06-08T09:30:48.419Z,19.70
2019-06-08T09:33:18.743Z,20.10
2019-06-08T09:35:48.008Z,20.00
2019-06-08T09:38:18.625Z,19.70
2019-06-08T09:40:48.893Z,19.40
2019-06-08T09:43:18.996Z,19.50
2019-06-08T09:46:09.212Z,19.90
2019-06-08T09:48:38.178Z,20.00
2019-06-08T09:51:09.226Z,20.00
2019-06-08T09:53:41.063Z,20.10
2019-06-08T09:56:09.611Z,19.60
2019-06-08T09:58:39.147Z,19.50
2019-06-08T10:01:09.166Z,19.70
2019-06-08T10:03:43.587Z,19.60
2019-06-08T10:06:12.731Z,19.60
2019-06-08T10:08:41.658Z,19.90
2019-06-08T10:11:10.196Z,20.00
2019-06-08T10:13:39.814Z,20.10
2019-06-08T10:16:10.244Z,19.90
2019-06-08T10:18:39.001Z,20.00
2019-06-08T10:21:09.668Z,20.00
2019-06-08T10:23:38.615Z,20.00
2019-06-08T10:26:19.942Z,20.40
2019-06-08T10:28:51.262Z,20.50
2019-06-08T10:31:18.876Z,20.20
2019-06-08T10:33:48.214Z,19.80
2019-06-08T10:36:18.273Z,19.60
2019-06-08T10:38:48.036Z,19.90
2019-06-08T10:41:21.364Z,19.90
2019-06-08T10:43:48.167Z,20.00
2019-06-08T10:46:20.564Z,20.30
2019-06-08T10:48:48.633Z,20.50
2019-06-08T10:51:18.379Z,20.40
2019-06-08T10:53:52.613Z,20.20
2019-06-08T10:56:18.870Z,20.60
2019-06-08T10:58:49.810Z,20.80
2019-06-08T11:01:18.779Z,20.70
2019-06-08T11:03:48.872Z,20.30
2019-06-08T11:06:18.985Z,20.00
2019-06-08T11:08:47.668Z,20.00
2019-06-08T11:11:19.562Z,19.90
2019-06-08T11:13:50.071Z,19.70
2019-06-08T11:16:18.007Z,19.60
2019-06-08T11:18:50.803Z,19.40
2019-06-08T11:21:18.687Z,19.40
2019-06-08T11:24:04.548Z,19.60
2019-06-08T11:26:30.666Z,19.50
2019-06-08T11:29:01.104Z,19.60
2019-06-08T11:31:32.088Z,19.70
2019-06-08T11:34:00.304Z,20.00
2019-06-08T11:36:30.279Z,20.10
2019-06-08T11:39:00.267Z,20.50
2019-06-08T11:41:28.991Z,20.60
2019-06-08T11:43:59.706Z,20.20
2019-06-08T11:46:28.240Z,20.10
2019-06-08T11:48:57.780Z,20.10
2019-06-08T11:51:29.626Z,19.90
2019-06-08T11:53:59.436Z,19.90
2019-06-08T11:56:28.157Z,19.80
2019-06-08T11:58:57.954Z,19.60
2019-06-08T12:01:27.687Z,19.50
2019-06-08T12:03:57.948Z,19.70
2019-06-08T12:06:26.508Z,19.70
2019-06-08T12:08:54.946Z,19.60
2019-06-08T12:11:23.388Z,19.40
2019-06-08T12:13:52.183Z,19.50
2019-06-08T12:16:22.364Z,19.50
2019-06-08T12:18:50.952Z,19.70
2019-06-08T12:21:19.729Z,19.70
2019-06-08T12:23:48.151Z,20.00
2019-06-08T12:26:16.569Z,20.20
2019-06-08T12:29:05.069Z,20.30
2019-06-08T12:31:33.977Z,20.70
2019-06-08T12:34:02.783Z,20.70
2019-06-08T12:36:31.229Z,20.50
2019-06-08T12:38:59.739Z,20.00
2019-06-08T12:41:31.285Z,19.80
2019-06-08T12:43:58.623Z,19.60
2019-06-08T12:46:27.994Z,19.50
2019-06-08T12:48:58.279Z,19.40
2019-06-08T12:51:28.197Z,19.20
2019-06-08T12:53:59.842Z,19.20
2019-06-08T12:56:28.752Z,19.40
2019-06-08T12:58:58.034Z,19.60
2019-06-08T13:01:28.242Z,19.40
2019-06-08T13:03:58.096Z,19.70
2019-06-08T13:06:28.236Z,20.60
2019-06-08T13:08:57.885Z,20.50
2019-06-08T13:11:28.259Z,20.20
2019-06-08T13:13:56.752Z,19.80
2019-06-08T13:16:25.211Z,19.50
2019-06-08T13:18:53.684Z,19.50
2019-06-08T13:21:33.803Z,19.40
2019-06-08T13:23:52.286Z,19.60
2019-06-08T13:26:27.530Z,19.70
2019-06-08T13:29:11.938Z,19.90
2019-06-08T13:31:41.011Z,20.00
2019-06-08T13:34:11.086Z,20.50
2019-06-08T13:36:42.259Z,20.30
2019-06-08T13:39:11.628Z,20.10
2019-06-08T13:41:40.612Z,20.80
2019-06-08T13:44:09.049Z,21.40
2019-06-08T13:46:37.948Z,21.10
2019-06-08T13:49:08.263Z,21.40
2019-06-08T13:51:38.419Z,22.00
2019-06-08T13:54:08.469Z,21.90
2019-06-08T13:56:38.603Z,22.00
2019-06-08T13:59:08.059Z,22.30
2019-06-08T14:01:37.832Z,22.20
2019-06-08T14:04:08.794Z,22.10
2019-06-08T14:06:37.308Z,21.70
2019-06-08T14:09:08.325Z,21.70
2019-06-08T14:11:37.003Z,21.40
2019-06-08T14:14:08.259Z,21.30
2019-06-08T14:16:38.729Z,20.90
2019-06-08T14:19:08.458Z,21.00
2019-06-08T14:21:41.653Z,21.30
2019-06-08T14:24:07.765Z,21.90
2019-06-08T14:26:37.659Z,22.20
2019-06-08T14:29:08.233Z,22.40
2019-06-08T14:31:38.109Z,22.20
2019-06-08T14:34:10.017Z,21.80
2019-06-08T14:36:40.624Z,21.50
2019-06-08T14:39:10.433Z,21.40
2019-06-08T14:41:37.735Z,21.70
2019-06-08T14:44:08.312Z,22.00
2019-06-08T14:46:40.831Z,22.30
2019-06-08T14:49:06.967Z,22.40
2019-06-08T14:51:49.009Z,21.90
2019-06-08T14:54:22.785Z,21.30
2019-06-08T14:56:49.084Z,20.80
2019-06-08T14:59:18.809Z,20.70
2019-06-08T15:01:48.965Z,21.00
2019-06-08T15:04:20.253Z,21.20
2019-06-08T15:06:49.007Z,21.00
2019-06-08T15:09:37.632Z,21.00
2019-06-08T15:12:26.141Z,20.90
2019-06-08T15:14:57.902Z,20.90
2019-06-08T15:17:28.888Z,21.00
2019-06-08T15:19:58.578Z,21.30
2019-06-08T15:22:29.907Z,21.20
2019-06-08T15:25:11.159Z,21.00
2019-06-08T15:27:39.923Z,20.80
2019-06-08T15:30:09.176Z,20.70
2019-06-08T15:32:38.635Z,20.70
2019-06-08T15:35:08.297Z,20.70
2019-06-08T15:37:38.083Z,20.70
2019-06-08T15:40:07.660Z,20.80
2019-06-08T15:42:36.313Z,20.70
2019-06-08T15:45:08.601Z,20.60
2019-06-08T15:47:40.505Z,20.50
2019-06-08T15:50:08.822Z,20.60
2019-06-08T15:52:38.148Z,20.70
2019-06-08T15:55:10.891Z,20.80
2019-06-08T15:57:40.891Z,20.90
2019-06-08T16:00:10.247Z,20.70
2019-06-08T16:02:39.457Z,20.70
2019-06-08T16:05:08.918Z,20.80
2019-06-08T16:07:37.613Z,21.00
2019-06-08T16:10:08.172Z,21.00
2019-06-08T16:12:37.079Z,20.80
2019-06-08T16:15:06.952Z,20.70
2019-06-08T16:17:35.678Z,20.60
2019-06-08T16:20:04.853Z,20.50
2019-06-08T16:22:33.915Z,20.40
2019-06-08T16:25:02.503Z,20.30
2019-06-08T16:27:32.018Z,20.10
2019-06-08T16:30:08.730Z,20.10
2019-06-08T16:32:31.648Z,20.00
2019-06-08T16:35:00.219Z,19.90
2019-06-08T16:37:29.535Z,19.80
2019-06-08T16:39:58.391Z,19.80
2019-06-08T16:42:27.867Z,20.00
2019-06-08T16:44:56.511Z,20.20
2019-06-08T16:47:25.458Z,20.40
2019-06-08T16:49:54.283Z,20.70
2019-06-08T16:52:22.703Z,20.70
2019-06-08T16:54:51.149Z,20.70
2019-06-08T16:57:19.571Z,20.70
2019-06-08T16:59:48.021Z,20.40
2019-06-08T17:02:17.170Z,20.20
2019-06-08T17:04:46.000Z,20.10
2019-06-08T17:07:14.439Z,19.90
2019-06-08T17:09:43.099Z,19.80
2019-06-08T17:12:11.749Z,19.90
2019-06-08T17:14:40.659Z,19.90
2019-06-08T17:17:09.498Z,19.90
2019-06-08T17:19:38.436Z,19.80
2019-06-08T17:22:07.351Z,19.80
2019-06-08T17:24:36.678Z,19.60
2019-06-08T17:27:05.764Z,19.60
2019-06-08T17:29:34.905Z,19.60
2019-06-08T17:32:04.500Z,19.70
2019-06-08T17:34:34.946Z,19.70
2019-06-08T17:37:03.071Z,19.80
2019-06-08T17:39:37.944Z,19.80
2019-06-08T17:42:25.851Z,19.80
2019-06-08T17:44:54.616Z,19.80
2019-06-08T17:47:24.649Z,19.70
2019-06-08T17:49:53.400Z,19.70
2019-06-08T17:52:21.822Z,19.60
2019-06-08T17:54:50.255Z,19.60
2019-06-08T17:57:18.987Z,19.60
2019-06-08T17:59:47.901Z,19.60
2019-06-08T18:02:25.026Z,19.50
2019-06-08T18:04:48.551Z,19.50
2019-06-08T18:07:17.198Z,19.50
2019-06-08T18:09:45.693Z,19.40
2019-06-08T18:12:14.134Z,19.40
2019-06-08T18:14:43.867Z,19.30
2019-06-08T18:17:12.737Z,19.30
2019-06-08T18:19:43.650Z,19.30
2019-06-08T18:22:30.680Z,19.20
2019-06-08T18:24:59.470Z,19.20
2019-06-08T18:27:28.243Z,19.10
2019-06-08T18:29:58.217Z,19.00
2019-06-08T18:32:27.173Z,18.90
2019-06-08T18:34:57.260Z,18.80
2019-06-08T18:37:28.313Z,18.80
2019-06-08T18:39:57.809Z,18.70
2019-06-08T18:42:27.019Z,18.70
2019-06-08T18:44:58.084Z,18.70
2019-06-08T18:47:27.375Z,18.70
2019-06-08T18:49:57.427Z,18.60
2019-06-08T18:52:27.837Z,18.60
2019-06-08T18:54:57.856Z,18.60
2019-06-08T18:57:33.440Z,18.50
2019-06-08T19:00:08.523Z,18.40
2019-06-08T19:02:32.127Z,18.30
2019-06-08T19:05:00.568Z,18.30
2019-06-08T19:07:29.260Z,18.20
2019-06-08T19:10:00.074Z,18.10
2019-06-08T19:12:28.891Z,18.10
2019-06-08T19:14:58.631Z,18.10
2019-06-08T19:17:28.423Z,18.10
2019-06-08T19:20:18.158Z,18.10
2019-06-08T19:22:53.772Z,18.10
2019-06-08T19:25:17.571Z,18.10
2019-06-08T19:27:51.821Z,18.00
2019-06-08T19:30:39.450Z,17.90
2019-06-08T19:33:07.611Z,17.80
2019-06-08T19:35:37.650Z,17.50
2019-06-08T19:38:07.403Z,17.40
2019-06-08T19:40:38.853Z,17.30
2019-06-08T19:43:07.511Z,17.30
2019-06-08T19:45:39.143Z,17.10
2019-06-08T19:48:08.290Z,17.10
2019-06-08T19:50:38.671Z,17.00
2019-06-08T19:53:07.367Z,16.90
2019-06-08T19:55:36.335Z,16.80
2019-06-08T19:58:08.970Z,16.70
2019-06-08T20:00:40.482Z,16.60
2019-06-08T20:03:08.512Z,16.50
2019-06-08T20:05:37.856Z,16.40
2019-06-08T20:08:08.038Z,16.40
2019-06-08T20:10:39.364Z,16.30
2019-06-08T20:13:07.943Z,16.30
2019-06-08T20:15:43.358Z,16.20
2019-06-08T20:18:06.728Z,16.10
2019-06-08T20:20:35.184Z,16.10
2019-06-08T20:23:09.551Z,16.10
2019-06-08T20:25:38.037Z,16.00
2019-06-08T20:28:07.778Z,15.90
2019-06-08T20:30:37.521Z,15.80
2019-06-08T20:33:08.097Z,15.70
2019-06-08T20:35:37.518Z,15.60
2019-06-08T20:38:08.341Z,15.50
2019-06-08T20:40:38.362Z,15.50
2019-06-08T20:43:07.197Z,15.40
2019-06-08T20:45:37.498Z,15.40
2019-06-08T20:48:06.148Z,15.40
2019-06-08T20:50:37.808Z,15.30
2019-06-08T20:53:10.196Z,15.30
2019-06-08T20:55:40.433Z,15.20
2019-06-08T20:58:09.472Z,15.20
2019-06-08T21:00:37.966Z,15.00
2019-06-08T21:03:08.171Z,15.00
2019-06-08T21:05:36.903Z,15.00
2019-06-08T21:08:08.174Z,14.90
2019-06-08T21:10:37.817Z,14.80
2019-06-08T21:13:07.280Z,14.70
2019-06-08T21:15:38.471Z,14.70
2019-06-08T21:18:07.887Z,14.60
2019-06-08T21:20:37.750Z,14.50
2019-06-08T21:23:08.195Z,14.30
2019-06-08T21:25:37.291Z,14.20
2019-06-08T21:28:07.734Z,14.10
2019-06-08T21:30:37.820Z,13.90
2019-06-08T21:33:08.223Z,13.80
2019-06-08T21:35:36.940Z,13.70
2019-06-08T21:38:20.166Z,13.60
2019-06-08T21:40:37.611Z,13.60
2019-06-08T21:43:08.124Z,13.60
2019-06-08T21:45:42.422Z,13.60
2019-06-08T21:48:10.939Z,13.50
2019-06-08T21:50:39.355Z,13.50
2019-06-08T21:53:07.928Z,13.40
2019-06-08T21:55:37.989Z,13.40
2019-06-08T21:58:08.075Z,13.30
2019-06-08T22:00:42.913Z,13.20
2019-06-08T22:03:08.064Z,13.20
2019-06-08T22:05:37.702Z,13.10
2019-06-08T22:08:08.036Z,13.00
2019-06-08T22:10:37.723Z,12.90
2019-06-08T22:13:28.256Z,12.80
2019-06-08T22:16:00.988Z,12.70
2019-06-08T22:18:27.564Z,12.70
2019-06-08T22:20:59.368Z,12.60
2019-06-08T22:23:26.435Z,12.60
2019-06-08T22:25:56.017Z,12.50
2019-06-08T22:28:27.001Z,12.40
2019-06-08T22:30:56.191Z,12.30
2019-06-08T22:33:25.354Z,12.30
2019-06-08T22:35:54.244Z,12.20
2019-06-08T22:38:23.092Z,12.20
2019-06-08T22:40:52.644Z,12.10
2019-06-08T22:43:22.064Z,12.10
2019-06-08T22:45:52.787Z,12.00
2019-06-08T22:48:21.320Z,12.00
2019-06-08T22:50:50.112Z,11.90
2019-06-08T22:53:18.548Z,11.90
2019-06-08T22:55:47.638Z,11.80
2019-06-08T22:58:19.018Z,11.80
2019-06-08T23:00:52.713Z,11.80
2019-06-08T23:03:20.619Z,11.70
2019-06-08T23:05:49.326Z,11.70
2019-06-08T23:08:18.010Z,11.70
2019-06-08T23:10:48.260Z,11.70
2019-06-08T23:13:17.988Z,11.60
2019-06-08T23:15:47.959Z,11.60
2019-06-08T23:18:18.100Z,11.60
2019-06-08T23:20:47.903Z,11.70
2019-06-08T23:23:17.855Z,11.70
2019-06-08T23:25:47.852Z,11.70
2019-06-08T23:28:18.051Z,11.70
2019-06-08T23:30:47.749Z,11.70
2019-06-08T23:33:18.948Z,11.60
2019-06-08T23:36:27.384Z,11.60
2019-06-08T23:38:17.860Z,11.60
2019-06-08T23:40:47.458Z,11.50
2019-06-08T23:43:18.088Z,11.40
2019-06-08T23:45:47.411Z,11.40
2019-06-08T23:48:17.397Z,11.40
2019-06-08T23:50:47.430Z,11.50
2019-06-08T23:53:18.225Z,11.40
2019-06-08T23:55:47.881Z,11.40
2019-06-08T23:58:17.596Z,11.60
